createdAt,value
2022-12-20T00:01:47.110Z,103732.72
2022-12-20T00:06:41.637Z,103561.88
2022-12-20T00:11:39.498Z,103679.78
2022-12-20T00:16:32.755Z,103775.91
2022-12-20T00:21:27.122Z,103779.31
2022-12-20T00:26:22.701Z,103696.84
2022-12-20T00:31:20.078Z,103704.94
2022-12-20T00:36:13.532Z,103700.56
2022-12-20T00:41:10.356Z,103684.88
2022-12-20T00:46:04.192Z,103742.16
2022-12-20T00:51:01.936Z,103606.28
2022-12-20T00:55:55.837Z,103635.06
2022-12-20T01:00:55.834Z,103662.13
2022-12-20T01:05:54.296Z,103743.44
2022-12-20T01:10:59.156Z,103695.06
2022-12-20T01:15:52.377Z,103695.94
2022-12-20T01:20:46.045Z,103643.91
2022-12-20T01:25:39.230Z,103612.59
2022-12-20T01:30:34.132Z,103601.41
2022-12-20T01:35:27.591Z,103663.91
2022-12-20T01:40:20.900Z,103702.31
2022-12-20T01:45:22.001Z,103697.91
2022-12-20T01:50:19.927Z,103587.00
2022-12-20T01:55:18.727Z,103692.78
2022-12-20T02:00:13.031Z,103687.66
2022-12-20T02:05:09.774Z,103650.50
2022-12-20T02:10:07.088Z,103662.75
2022-12-20T02:15:33.457Z,103657.72
2022-12-20T02:20:55.568Z,103579.13
2022-12-20T02:26:07.212Z,103602.44
2022-12-20T02:31:07.934Z,103559.91
2022-12-20T02:36:01.553Z,103552.09
2022-12-20T02:40:59.189Z,103488.75
2022-12-20T02:45:53.744Z,103559.50
2022-12-20T02:50:53.572Z,103624.38
2022-12-20T02:55:52.166Z,103581.91
2022-12-20T03:00:48.569Z,103621.75
2022-12-20T03:05:48.046Z,103589.78
2022-12-20T03:10:45.861Z,103557.88
2022-12-20T03:15:39.360Z,103549.06
2022-12-20T03:20:33.468Z,103472.94
2022-12-20T03:25:26.669Z,103604.50
2022-12-20T03:30:21.803Z,103612.78
2022-12-20T03:35:15.262Z,103620.34
2022-12-20T03:40:09.884Z,103571.84
2022-12-20T03:45:03.417Z,103604.78
2022-12-20T03:49:59.443Z,103605.66
2022-12-20T03:54:54.139Z,103603.13
2022-12-20T03:59:54.368Z,103599.81
2022-12-20T04:04:47.849Z,103488.28
2022-12-20T04:09:43.034Z,103588.78
2022-12-20T04:14:39.589Z,103566.66
2022-12-20T04:19:33.407Z,103559.63
2022-12-20T04:24:28.480Z,103532.97
2022-12-20T04:29:35.527Z,103560.59
2022-12-20T04:34:31.639Z,103559.78
2022-12-20T04:39:25.592Z,103477.66
2022-12-20T04:44:43.091Z,103554.63
2022-12-20T04:49:37.975Z,103539.47
2022-12-20T04:54:31.791Z,103554.88
2022-12-20T04:59:37.638Z,103503.56
2022-12-20T05:04:37.226Z,103584.19
2022-12-20T05:09:31.432Z,103581.91
2022-12-20T05:14:24.929Z,103574.81
2022-12-20T05:19:18.846Z,103577.53
2022-12-20T05:24:34.240Z,103534.34
2022-12-20T05:29:41.835Z,103435.56
2022-12-20T05:34:36.064Z,103564.97
2022-12-20T05:39:31.098Z,103561.53
2022-12-20T05:44:28.174Z,103425.66
2022-12-20T05:49:25.830Z,103528.19
2022-12-20T05:54:20.852Z,103392.47
2022-12-20T05:59:22.779Z,103472.25
2022-12-20T06:04:16.077Z,103488.56
2022-12-20T06:09:10.869Z,103476.44
2022-12-20T06:14:26.070Z,103533.53
2022-12-20T06:19:22.486Z,103541.16
2022-12-20T06:24:19.056Z,103509.13
2022-12-20T06:29:14.352Z,103428.53
2022-12-20T06:34:17.316Z,103479.31
2022-12-20T06:39:11.634Z,103537.78
2022-12-20T06:44:13.603Z,103505.94
2022-12-20T06:49:07.055Z,103497.25
2022-12-20T06:54:01.807Z,103504.34
2022-12-20T06:58:58.033Z,103395.34
2022-12-20T07:03:51.384Z,103467.91
2022-12-20T07:08:44.800Z,103532.22
2022-12-20T07:13:39.409Z,103316.78
2022-12-20T07:18:32.850Z,103502.09
2022-12-20T07:23:26.140Z,103478.94
2022-12-20T07:28:19.466Z,103481.53
2022-12-20T07:33:15.297Z,103445.28
2022-12-20T07:38:08.532Z,103520.66
2022-12-20T07:43:01.816Z,103289.84
2022-12-20T07:47:57.298Z,103474.16
2022-12-20T07:52:52.558Z,103511.41
2022-12-20T07:57:50.374Z,103508.88
2022-12-20T08:02:49.314Z,103465.00
2022-12-20T08:07:44.517Z,103532.53
2022-12-20T08:12:40.820Z,103524.13
2022-12-20T08:17:34.300Z,103523.34
2022-12-20T08:22:28.015Z,103488.22
2022-12-20T08:27:21.383Z,103460.69
2022-12-20T08:32:16.449Z,103408.09
2022-12-20T08:37:14.703Z,103459.25
2022-12-20T08:42:08.676Z,103513.03
2022-12-20T08:47:01.903Z,103496.97
2022-12-20T08:51:56.611Z,103332.81
2022-12-20T08:56:50.145Z,103474.75
2022-12-20T09:01:43.473Z,103471.50
2022-12-20T09:06:37.118Z,103372.88
2022-12-20T09:11:32.423Z,103472.34
2022-12-20T09:16:28.972Z,103323.94
2022-12-20T09:21:22.870Z,103454.53
2022-12-20T09:26:17.795Z,103233.50
2022-12-20T09:31:16.011Z,103359.03
2022-12-20T09:36:12.673Z,103426.53
2022-12-20T09:41:08.211Z,103330.97
2022-12-20T09:46:03.154Z,103403.09
2022-12-20T09:51:14.321Z,103205.84
2022-12-20T09:56:15.686Z,103328.22
2022-12-20T10:01:24.438Z,103369.63
2022-12-20T10:06:32.445Z,103334.09
2022-12-20T10:11:51.226Z,103324.06
2022-12-20T10:16:47.920Z,103323.38
2022-12-20T10:21:52.884Z,103106.56
2022-12-20T10:26:47.769Z,103275.06
2022-12-20T10:31:44.128Z,103302.72
2022-12-20T10:36:38.418Z,103253.88
2022-12-20T10:41:42.861Z,103290.22
2022-12-20T10:46:38.966Z,103265.44
2022-12-20T10:51:32.486Z,103213.88
2022-12-20T10:56:29.255Z,103084.81
2022-12-20T11:01:30.837Z,103229.25
2022-12-20T11:06:26.948Z,103074.44
2022-12-20T11:11:22.138Z,103203.44
2022-12-20T11:16:38.137Z,103152.72
2022-12-20T11:21:42.324Z,103100.28
2022-12-20T11:26:52.167Z,103129.53
2022-12-20T11:31:57.395Z,103134.72
2022-12-20T11:37:11.500Z,103191.50
2022-12-20T11:42:11.479Z,103126.88
2022-12-20T11:47:30.948Z,103156.88
2022-12-20T11:52:36.318Z,103070.69
2022-12-20T11:58:01.727Z,103150.56
2022-12-20T12:02:58.997Z,103102.25
2022-12-20T12:08:00.848Z,103138.44
2022-12-20T12:13:00.941Z,103116.94
2022-12-20T12:18:03.781Z,103109.22
2022-12-20T12:23:03.375Z,103107.59
2022-12-20T12:28:04.396Z,103079.19
2022-12-20T12:33:07.789Z,103108.44
2022-12-20T12:38:34.633Z,103097.34
2022-12-20T12:43:46.960Z,102972.66
2022-12-20T12:48:52.534Z,102992.50
2022-12-20T12:53:50.789Z,103085.47
2022-12-20T12:59:06.526Z,102957.41
2022-12-20T13:04:25.581Z,103076.16
2022-12-20T13:09:36.608Z,102942.06
2022-12-20T13:14:50.062Z,103069.34
2022-12-20T13:19:52.655Z,102974.78
2022-12-20T13:24:56.997Z,102979.91
2022-12-20T13:30:27.836Z,102941.22
2022-12-20T13:35:45.023Z,103054.66
2022-12-20T13:40:42.400Z,103033.13
2022-12-20T13:45:36.194Z,102994.47
2022-12-20T13:50:35.722Z,102991.88
2022-12-20T13:55:35.615Z,103000.53
2022-12-20T14:00:29.196Z,102985.03
2022-12-20T14:05:26.875Z,103028.88
2022-12-20T14:10:26.492Z,102798.59
2022-12-20T14:15:29.077Z,103003.91
2022-12-20T14:20:31.448Z,102900.78
2022-12-20T14:25:33.889Z,102846.66
2022-12-20T14:30:30.277Z,103003.81
2022-12-20T14:35:25.273Z,102966.88
2022-12-20T14:40:22.707Z,102981.44
2022-12-20T14:45:28.821Z,102970.22
2022-12-20T14:50:30.438Z,102975.28
2022-12-20T14:55:25.884Z,102970.09
2022-12-20T15:00:28.867Z,102923.63
2022-12-20T15:05:54.102Z,102833.34
2022-12-20T15:10:54.503Z,102966.47
2022-12-20T15:15:49.324Z,102963.81
2022-12-20T15:20:44.334Z,102860.69
2022-12-20T15:25:43.177Z,102926.88
2022-12-20T15:30:38.625Z,102882.06
2022-12-20T15:35:34.288Z,102944.84
2022-12-20T15:40:27.985Z,102753.13
2022-12-20T15:45:31.911Z,102814.03
2022-12-20T15:50:28.012Z,102703.06
2022-12-20T15:55:25.167Z,102908.28
2022-12-20T16:00:19.069Z,102878.00
2022-12-20T16:05:14.800Z,102816.84
2022-12-20T16:10:12.096Z,102897.63
2022-12-20T16:15:11.182Z,102932.72
2022-12-20T16:20:05.676Z,102846.69
2022-12-20T16:24:59.270Z,102937.81
2022-12-20T16:30:07.278Z,102940.31
2022-12-20T16:35:02.776Z,102868.94
2022-12-20T16:39:57.224Z,102929.97
2022-12-20T16:44:53.369Z,102803.41
2022-12-20T16:49:52.238Z,102861.94
2022-12-20T16:54:48.002Z,102776.72
2022-12-20T16:59:44.951Z,102816.22
2022-12-20T17:04:38.185Z,102771.41
2022-12-20T17:14:54.331Z,102838.38
2022-12-20T17:19:50.807Z,102704.25
2022-12-20T17:24:44.680Z,102903.00
2022-12-20T17:29:38.019Z,102811.69
2022-12-20T17:34:41.818Z,102902.03
2022-12-20T17:39:38.908Z,102654.19
2022-12-20T17:44:32.743Z,102834.75
2022-12-20T17:49:26.990Z,102902.72
2022-12-20T17:54:23.993Z,102759.91
2022-12-20T17:59:17.951Z,102636.97
2022-12-20T18:04:13.773Z,102876.13
2022-12-20T18:09:15.566Z,102825.28
2022-12-20T18:14:19.555Z,102723.88
2022-12-20T18:19:20.084Z,102816.94
2022-12-20T18:24:20.037Z,102849.63
2022-12-20T18:29:13.512Z,102688.00
2022-12-20T18:34:08.614Z,102835.91
2022-12-20T18:39:03.472Z,102833.31
2022-12-20T18:43:59.740Z,102797.25
2022-12-20T18:48:54.555Z,102828.19
2022-12-20T18:53:52.884Z,102756.00
2022-12-20T18:58:49.829Z,102817.03
2022-12-20T19:03:46.094Z,102699.19
2022-12-20T19:08:40.078Z,102709.56
2022-12-20T19:13:39.077Z,102577.31
2022-12-20T19:18:32.548Z,102765.50
2022-12-20T19:23:26.256Z,102823.19
2022-12-20T19:28:20.324Z,102786.34
2022-12-20T19:33:15.660Z,102811.38
2022-12-20T19:38:09.985Z,102753.03
2022-12-20T19:43:03.439Z,102710.09
2022-12-20T19:47:59.431Z,102794.38
2022-12-20T19:52:57.306Z,102758.28
2022-12-20T19:57:50.858Z,102797.03
2022-12-20T20:02:44.441Z,102668.19
2022-12-20T20:07:37.845Z,102737.00
2022-12-20T20:12:32.625Z,102739.56
2022-12-20T20:17:26.151Z,102774.91
2022-12-20T20:22:23.050Z,102717.41
2022-12-20T20:27:19.398Z,102759.56
2022-12-20T20:32:14.095Z,102668.59
2022-12-20T20:37:07.528Z,102749.38
2022-12-20T20:42:01.872Z,102715.88
2022-12-20T20:46:55.177Z,102710.00
2022-12-20T20:51:51.027Z,102726.41
2022-12-20T20:56:44.366Z,102582.22
2022-12-20T21:01:37.990Z,102717.09
2022-12-20T21:06:46.987Z,102718.00
2022-12-20T21:11:41.940Z,102682.78
2022-12-20T21:16:36.935Z,102623.59
2022-12-20T21:21:30.444Z,102651.09
2022-12-20T21:26:25.614Z,102662.25
2022-12-20T21:31:20.893Z,102521.56
2022-12-20T21:36:16.425Z,102546.50
2022-12-20T21:41:12.468Z,102558.59
2022-12-20T21:46:06.091Z,102685.66
2022-12-20T21:51:02.555Z,102491.88
2022-12-20T21:55:58.017Z,102653.16
2022-12-20T22:00:54.720Z,102653.22
2022-12-20T22:05:48.716Z,102616.31
2022-12-20T22:10:44.171Z,102656.63
2022-12-20T22:15:38.992Z,102613.78
2022-12-20T22:20:33.019Z,102612.06
2022-12-20T22:25:26.709Z,102631.00
2022-12-20T22:30:21.448Z,102622.47
2022-12-20T22:35:20.634Z,102618.13
2022-12-20T22:40:15.825Z,102581.25
2022-12-20T22:45:10.436Z,102609.66
2022-12-20T22:50:05.346Z,102612.22
2022-12-20T22:54:58.673Z,102598.47
2022-12-20T22:59:51.886Z,102551.41
2022-12-20T23:04:45.278Z,102582.19
2022-12-20T23:09:39.954Z,102553.09
2022-12-20T23:14:50.959Z,102581.47
2022-12-20T23:20:01.594Z,102586.63
2022-12-20T23:24:56.151Z,102540.25
2022-12-20T23:29:49.304Z,102574.59
2022-12-20T23:34:42.552Z,102483.66
2022-12-20T23:39:35.933Z,102524.81
2022-12-20T23:44:30.505Z,102500.75
2022-12-20T23:49:23.626Z,102495.59
2022-12-20T23:54:19.668Z,102527.13
2022-12-20T23:59:12.928Z,102558.03
